createdAt,value
2022-08-10T00:01:53.251Z,26.60
2022-08-10T00:04:22.944Z,26.60
2022-08-10T00:06:53.496Z,26.60
2022-08-10T00:09:21.957Z,26.50
2022-08-10T00:11:51.796Z,26.60
2022-08-10T00:14:20.445Z,26.50
2022-08-10T00:16:49.292Z,26.50
2022-08-10T00:19:18.278Z,26.50
2022-08-10T00:21:47.232Z,26.50
2022-08-10T00:24:16.625Z,26.50
2022-08-10T00:27:50.120Z,26.50
2022-08-10T00:29:34.957Z,26.50
2022-08-10T00:32:03.791Z,26.50
2022-08-10T00:34:33.618Z,26.50
2022-08-10T00:37:02.885Z,26.50
2022-08-10T00:39:36.127Z,26.50
2022-08-10T00:42:08.176Z,26.50
2022-08-10T00:44:40.220Z,26.40
2022-08-10T00:47:16.276Z,26.40
2022-08-10T00:49:58.113Z,26.40
2022-08-10T00:52:28.909Z,26.40
2022-08-10T00:54:57.822Z,26.40
2022-08-10T00:57:26.682Z,26.40
2022-08-10T00:59:57.847Z,26.40
2022-08-10T01:02:29.134Z,26.30
2022-08-10T01:05:01.267Z,26.30
2022-08-10T01:07:43.999Z,26.30
2022-08-10T01:10:21.762Z,26.20
2022-08-10T01:12:56.329Z,26.20
2022-08-10T01:15:29.740Z,26.20
2022-08-10T01:18:04.243Z,26.20
2022-08-10T01:20:40.117Z,26.20
2022-08-10T01:23:39.476Z,26.20
2022-08-10T01:26:31.193Z,26.20
2022-08-10T01:29:15.598Z,26.20
2022-08-10T01:31:51.683Z,26.10
2022-08-10T01:34:24.623Z,26.10
2022-08-10T01:36:55.426Z,26.10
2022-08-10T01:39:26.477Z,26.10
2022-08-10T01:41:58.235Z,26.10
2022-08-10T01:44:30.957Z,26.00
2022-08-10T01:47:22.205Z,26.00
2022-08-10T01:49:55.033Z,26.00
2022-08-10T01:52:27.358Z,26.00
2022-08-10T01:54:57.454Z,25.90
2022-08-10T01:57:28.975Z,26.00
2022-08-10T02:00:02.059Z,25.90
2022-08-10T02:02:35.088Z,25.90
2022-08-10T02:05:06.278Z,25.90
2022-08-10T02:07:37.863Z,25.90
2022-08-10T02:10:12.277Z,25.90
2022-08-10T02:12:43.935Z,25.80
2022-08-10T02:15:16.296Z,25.80
2022-08-10T02:17:57.798Z,25.80
2022-08-10T02:20:33.445Z,25.80
2022-08-10T02:23:05.705Z,25.80
2022-08-10T02:25:42.676Z,25.80
2022-08-10T02:28:29.704Z,25.80
2022-08-10T02:31:06.222Z,25.80
2022-08-10T02:33:38.570Z,25.70
2022-08-10T02:36:27.528Z,25.70
2022-08-10T02:39:00.856Z,25.70
2022-08-10T02:45:14.850Z,25.60
2022-08-10T02:45:24.426Z,25.60
2022-08-10T02:47:22.605Z,25.60
2022-08-10T02:50:01.147Z,25.60
2022-08-10T02:52:36.497Z,25.60
2022-08-10T02:55:17.677Z,25.60
2022-08-10T02:58:13.460Z,25.60
2022-08-10T03:00:46.606Z,25.70
2022-08-10T03:03:20.371Z,25.60
2022-08-10T03:05:54.565Z,25.60
2022-08-10T03:08:27.143Z,25.60
2022-08-10T03:10:57.626Z,25.60
2022-08-10T03:13:27.284Z,25.60
2022-08-10T03:15:57.442Z,25.60
2022-08-10T03:18:26.321Z,25.60
2022-08-10T03:20:56.979Z,25.60
2022-08-10T03:23:28.146Z,25.60
2022-08-10T03:25:59.075Z,25.60
2022-08-10T03:28:28.906Z,25.60
2022-08-10T03:30:58.761Z,25.60
2022-08-10T03:33:30.030Z,25.60
2022-08-10T03:36:41.864Z,25.60
2022-08-10T03:38:51.844Z,25.60
2022-08-10T03:41:25.221Z,25.70
2022-08-10T03:43:54.995Z,25.70
2022-08-10T03:46:26.840Z,25.60
2022-08-10T03:48:59.240Z,25.70
2022-08-10T03:51:32.404Z,25.60
2022-08-10T03:54:04.871Z,25.70
2022-08-10T03:56:37.538Z,25.70
2022-08-10T03:59:10.133Z,25.60
2022-08-10T04:02:46.986Z,25.70
2022-08-10T04:04:27.423Z,25.70
2022-08-10T04:06:59.318Z,25.70
2022-08-10T04:09:54.015Z,25.70
2022-08-10T04:12:18.344Z,25.70
2022-08-10T04:14:49.503Z,25.70
2022-08-10T04:17:18.718Z,25.70
2022-08-10T04:20:09.277Z,25.60
2022-08-10T04:22:41.415Z,25.60
2022-08-10T04:25:11.777Z,25.60
2022-08-10T04:27:40.460Z,25.60
2022-08-10T04:30:10.034Z,25.60
2022-08-10T04:32:39.454Z,25.60
2022-08-10T04:35:11.804Z,25.60
2022-08-10T04:37:47.311Z,25.60
2022-08-10T04:40:25.418Z,25.50
2022-08-10T04:43:11.198Z,25.50
2022-08-10T04:45:48.536Z,25.50
2022-08-10T04:48:40.073Z,25.40
2022-08-10T04:51:16.977Z,25.50
2022-08-10T04:54:04.023Z,25.50
2022-08-10T04:56:37.602Z,25.50
2022-08-10T04:59:07.565Z,25.50
2022-08-10T05:02:12.517Z,25.50
2022-08-10T05:04:34.627Z,25.50
2022-08-10T05:07:15.898Z,25.50
2022-08-10T05:10:05.057Z,25.60
2022-08-10T05:12:36.863Z,25.60
2022-08-10T05:15:10.826Z,25.60
2022-08-10T05:17:40.210Z,25.70
2022-08-10T05:20:13.996Z,25.70
2022-08-10T05:22:44.530Z,25.70
2022-08-10T05:25:16.360Z,25.80
2022-08-10T05:27:45.815Z,25.80
2022-08-10T05:30:21.960Z,25.80
2022-08-10T05:32:56.535Z,25.90
2022-08-10T05:35:28.827Z,25.90
2022-08-10T05:38:18.185Z,25.90
2022-08-10T05:40:49.177Z,26.00
2022-08-10T05:43:19.682Z,26.00
2022-08-10T05:46:17.399Z,26.00
2022-08-10T05:48:55.139Z,26.10
2022-08-10T05:51:27.524Z,26.00
2022-08-10T05:54:03.317Z,26.10
2022-08-10T05:56:53.311Z,26.10
2022-08-10T06:00:30.987Z,26.10
2022-08-10T06:02:33.316Z,26.10
2022-08-10T06:05:09.447Z,26.10
2022-08-10T06:07:42.079Z,26.20
2022-08-10T06:10:28.498Z,26.20
2022-08-10T06:13:29.815Z,26.30
2022-08-10T06:16:01.893Z,26.40
2022-08-10T06:18:31.079Z,26.40
2022-08-10T06:21:00.769Z,26.50
2022-08-10T06:23:30.772Z,26.60
2022-08-10T06:26:10.584Z,26.60
2022-08-10T06:29:02.216Z,26.70
2022-08-10T06:31:48.953Z,26.70
2022-08-10T06:34:21.426Z,26.90
2022-08-10T06:36:50.363Z,27.00
2022-08-10T06:39:35.517Z,27.00
2022-08-10T06:42:15.995Z,27.10
2022-08-10T06:44:54.008Z,27.20
2022-08-10T06:47:26.886Z,27.20
2022-08-10T06:50:01.486Z,27.30
2022-08-10T06:52:34.071Z,27.30
2022-08-10T06:55:05.389Z,27.40
2022-08-10T06:57:38.685Z,27.40
2022-08-10T07:00:10.268Z,27.50
2022-08-10T07:02:48.022Z,27.50
2022-08-10T07:05:21.230Z,27.50
2022-08-10T07:07:52.531Z,27.50
2022-08-10T07:10:25.121Z,27.60
2022-08-10T07:13:11.628Z,27.60
2022-08-10T07:15:59.130Z,27.70
2022-08-10T07:18:31.551Z,27.70
2022-08-10T07:21:02.158Z,27.70
2022-08-10T07:23:59.715Z,27.80
2022-08-10T07:26:22.451Z,27.80
2022-08-10T07:28:52.199Z,27.80
2022-08-10T07:31:36.837Z,27.80
2022-08-10T07:34:29.441Z,27.90
2022-08-10T07:37:02.185Z,27.90
2022-08-10T07:40:02.459Z,28.00
2022-08-10T07:42:22.906Z,28.00
2022-08-10T07:44:52.241Z,28.10
2022-08-10T07:47:46.156Z,28.20
2022-08-10T07:50:21.607Z,28.20
2022-08-10T07:52:53.044Z,28.20
2022-08-10T07:56:02.098Z,28.20
2022-08-10T07:58:12.838Z,28.30
2022-08-10T08:00:42.018Z,28.30
2022-08-10T08:03:15.140Z,28.40
2022-08-10T08:06:03.379Z,28.40
2022-08-10T08:08:34.677Z,28.40
2022-08-10T08:11:04.331Z,28.50
2022-08-10T08:13:33.987Z,28.50
2022-08-10T08:16:17.115Z,28.60
2022-08-10T08:19:09.866Z,28.60
2022-08-10T08:24:06.198Z,28.60
2022-08-10T08:24:33.497Z,28.60
2022-08-10T08:27:03.883Z,28.70
2022-08-10T08:29:35.220Z,28.80
2022-08-10T08:32:05.227Z,28.80
2022-08-10T08:34:38.097Z,28.80
2022-08-10T08:37:08.499Z,28.90
2022-08-10T08:39:38.001Z,28.90
2022-08-10T08:42:19.586Z,29.00
2022-08-10T08:45:17.044Z,29.00
2022-08-10T08:48:10.618Z,29.10
2022-08-10T08:50:57.359Z,29.20
2022-08-10T08:54:02.143Z,29.30
2022-08-10T08:56:41.295Z,29.30
2022-08-10T08:59:22.845Z,29.40
2022-08-10T09:02:00.242Z,29.50
2022-08-10T09:04:42.443Z,29.50
2022-08-10T09:08:00.555Z,29.60
2022-08-10T09:10:37.785Z,29.70
2022-08-10T09:13:13.061Z,29.70
2022-08-10T09:15:48.192Z,29.70
2022-08-10T09:18:22.532Z,29.70
2022-08-10T09:20:56.692Z,29.80
2022-08-10T09:24:01.584Z,29.80
2022-08-10T09:26:29.992Z,29.80
2022-08-10T09:29:21.216Z,29.70
2022-08-10T09:36:16.775Z,29.80
2022-08-10T09:36:19.399Z,29.80
2022-08-10T09:38:01.760Z,29.70
2022-08-10T09:40:59.768Z,29.80
2022-08-10T09:43:41.064Z,29.70
2022-08-10T09:46:22.034Z,29.70
2022-08-10T09:49:03.270Z,29.70
2022-08-10T09:51:45.800Z,29.70
2022-08-10T09:54:31.290Z,29.70
2022-08-10T09:57:44.313Z,29.80
2022-08-10T10:00:10.888Z,29.90
2022-08-10T10:02:52.663Z,30.00
2022-08-10T10:05:34.309Z,30.10
2022-08-10T10:08:12.081Z,30.10
2022-08-10T10:10:48.001Z,30.10
2022-08-10T10:13:50.046Z,30.00
2022-08-10T10:16:34.712Z,30.10
2022-08-10T10:19:17.438Z,30.10
2022-08-10T10:21:54.449Z,30.10
2022-08-10T10:24:34.254Z,30.20
2022-08-10T10:27:16.146Z,30.20
2022-08-10T10:29:57.109Z,30.30
2022-08-10T10:32:36.992Z,30.30
2022-08-10T10:35:17.042Z,30.30
2022-08-10T10:38:02.013Z,30.40
2022-08-10T10:40:39.927Z,30.30
2022-08-10T10:43:21.307Z,30.40
2022-08-10T10:46:04.543Z,30.40
2022-08-10T10:48:41.528Z,30.40
2022-08-10T10:51:17.571Z,30.30
2022-08-10T10:53:53.161Z,30.30
2022-08-10T10:56:29.264Z,30.30
2022-08-10T10:59:16.111Z,30.30
2022-08-10T11:02:17.789Z,30.30
2022-08-10T11:04:59.113Z,30.30
2022-08-10T11:07:45.925Z,30.30
2022-08-10T11:10:33.405Z,30.30
2022-08-10T11:14:25.777Z,30.20
2022-08-10T11:16:10.277Z,30.20
2022-08-10T11:18:54.449Z,30.20
2022-08-10T11:21:32.816Z,30.10
2022-08-10T11:24:46.955Z,30.10
2022-08-10T11:27:03.718Z,30.00
2022-08-10T11:29:41.460Z,30.00
2022-08-10T11:32:20.504Z,30.00
2022-08-10T11:35:11.706Z,30.00
2022-08-10T11:38:31.745Z,30.00
2022-08-10T11:40:49.381Z,30.00
2022-08-10T11:43:22.864Z,30.00
2022-08-10T11:45:55.986Z,30.00
2022-08-10T11:48:54.660Z,30.00
2022-08-10T11:51:29.983Z,30.10
2022-08-10T11:54:06.509Z,30.10
2022-08-10T11:56:48.937Z,30.10
2022-08-10T11:59:36.196Z,30.10
2022-08-10T12:02:07.770Z,30.10
2022-08-10T12:04:37.195Z,30.10
2022-08-10T12:10:02.625Z,30.10
2022-08-10T12:10:09.307Z,30.10
2022-08-10T12:12:45.996Z,30.10
2022-08-10T12:15:21.769Z,30.10
2022-08-10T12:18:06.635Z,30.10
2022-08-10T12:20:41.596Z,30.20
2022-08-10T12:23:16.959Z,30.20
2022-08-10T12:25:56.274Z,30.20
2022-08-10T12:28:50.835Z,30.20
2022-08-10T12:31:26.643Z,30.20
2022-08-10T12:34:20.711Z,30.20
2022-08-10T12:36:59.331Z,30.20
2022-08-10T12:39:37.549Z,30.20
2022-08-10T12:42:10.927Z,30.20
2022-08-10T12:45:07.342Z,30.20
2022-08-10T12:47:46.034Z,30.20
2022-08-10T12:50:31.560Z,30.20
2022-08-10T12:53:07.608Z,30.20
2022-08-10T12:55:40.293Z,30.30
2022-08-10T12:58:58.848Z,30.30
2022-08-10T13:01:21.391Z,30.30
2022-08-10T13:04:22.573Z,30.40
2022-08-10T13:06:46.162Z,30.40
2022-08-10T13:09:16.277Z,30.50
2022-08-10T13:12:38.215Z,30.60
2022-08-10T13:14:43.498Z,30.60
2022-08-10T13:17:23.646Z,30.70
2022-08-10T13:19:58.607Z,30.70
2022-08-10T13:22:36.839Z,30.80
2022-08-10T13:25:08.663Z,31.00
2022-08-10T13:28:01.189Z,31.10
2022-08-10T13:30:37.914Z,31.20
2022-08-10T13:33:08.609Z,31.20
2022-08-10T13:35:39.470Z,31.40
2022-08-10T13:38:13.016Z,31.40
2022-08-10T13:40:44.543Z,31.60
2022-08-10T13:43:17.863Z,31.60
2022-08-10T13:45:50.127Z,31.70
2022-08-10T13:48:24.491Z,31.70
2022-08-10T13:50:59.082Z,31.70
2022-08-10T13:53:33.541Z,31.70
2022-08-10T13:56:05.436Z,31.80
2022-08-10T13:58:38.245Z,31.80
2022-08-10T14:01:12.487Z,31.90
2022-08-10T14:03:43.038Z,31.90
2022-08-10T14:06:14.377Z,31.80
2022-08-10T14:08:49.838Z,31.70
2022-08-10T14:11:21.210Z,31.60
2022-08-10T14:13:56.317Z,31.50
2022-08-10T14:16:25.885Z,31.40
2022-08-10T14:18:56.523Z,31.30
2022-08-10T14:21:25.099Z,31.20
2022-08-10T14:23:53.967Z,31.20
2022-08-10T14:26:26.302Z,31.10
2022-08-10T14:29:03.431Z,31.10
2022-08-10T14:31:34.649Z,31.00
2022-08-10T14:34:08.409Z,31.00
2022-08-10T14:36:44.080Z,30.90
2022-08-10T14:39:20.783Z,30.90
2022-08-10T14:42:02.672Z,30.90
2022-08-10T14:44:47.367Z,30.80
2022-08-10T14:47:51.343Z,30.80
2022-08-10T14:50:08.294Z,30.70
2022-08-10T14:52:44.396Z,30.60
2022-08-10T14:55:19.337Z,30.60
2022-08-10T14:58:17.232Z,30.50
2022-08-10T15:00:43.226Z,30.40
2022-08-10T15:04:02.278Z,30.30
2022-08-10T15:06:17.070Z,30.20
2022-08-10T15:08:48.316Z,30.10
2022-08-10T15:12:13.613Z,30.00
2022-08-10T15:14:41.418Z,30.00
2022-08-10T15:17:01.113Z,29.80
2022-08-10T15:20:04.347Z,29.70
2022-08-10T15:22:47.011Z,29.70
2022-08-10T15:25:25.298Z,29.60
2022-08-10T15:28:02.121Z,29.50
2022-08-10T15:30:40.957Z,29.50
2022-08-10T15:33:57.524Z,29.50
2022-08-10T15:37:36.650Z,29.40
2022-08-10T15:40:24.575Z,29.40
2022-08-10T15:42:35.690Z,29.30
2022-08-10T15:45:05.256Z,29.30
2022-08-10T15:47:45.591Z,29.30
2022-08-10T15:50:25.402Z,29.20
2022-08-10T15:53:02.824Z,29.10
2022-08-10T15:55:42.492Z,29.00
2022-08-10T15:58:37.447Z,28.90
2022-08-10T16:02:12.813Z,28.90
2022-08-10T16:04:08.085Z,28.80
2022-08-10T16:06:44.023Z,28.80
2022-08-10T16:10:23.155Z,28.70
2022-08-10T16:12:14.681Z,28.70
2022-08-10T16:14:48.602Z,28.60
2022-08-10T16:17:18.833Z,28.50
2022-08-10T16:19:51.052Z,28.50
2022-08-10T16:22:35.819Z,28.40
2022-08-10T16:25:16.360Z,28.30
2022-08-10T16:27:46.226Z,28.20
2022-08-10T16:30:16.019Z,28.10
2022-08-10T16:32:47.452Z,28.00
2022-08-10T16:35:18.905Z,28.00
2022-08-10T16:37:57.732Z,27.80
2022-08-10T16:40:31.433Z,27.80
2022-08-10T16:43:02.786Z,27.70
2022-08-10T16:45:35.787Z,27.70
2022-08-10T16:48:07.247Z,27.70
2022-08-10T16:50:42.845Z,27.70
2022-08-10T16:53:17.083Z,27.60
2022-08-10T16:55:52.136Z,27.60
2022-08-10T16:58:27.788Z,27.60
2022-08-10T17:01:08.450Z,27.60
2022-08-10T17:04:06.173Z,27.60
2022-08-10T17:06:33.052Z,27.50
2022-08-10T17:09:34.768Z,27.50
2022-08-10T17:12:10.631Z,27.50
2022-08-10T17:14:41.663Z,27.40
2022-08-10T17:17:15.631Z,27.40
2022-08-10T17:19:46.138Z,27.30
2022-08-10T17:22:17.642Z,27.30
2022-08-10T17:24:52.890Z,27.30
2022-08-10T17:28:04.733Z,27.20
2022-08-10T17:30:29.063Z,27.30
2022-08-10T17:33:07.698Z,27.20
2022-08-10T17:35:44.031Z,27.10
2022-08-10T17:38:14.612Z,27.10
2022-08-10T17:40:48.961Z,27.00
2022-08-10T17:43:58.279Z,27.00
2022-08-10T17:46:15.651Z,26.90
2022-08-10T17:48:45.588Z,26.90
2022-08-10T17:51:17.598Z,26.90
2022-08-10T17:53:55.388Z,26.80
2022-08-10T17:56:37.654Z,26.80
2022-08-10T17:59:17.005Z,26.80
2022-08-10T18:01:58.630Z,26.70
2022-08-10T18:04:41.825Z,26.70
2022-08-10T18:07:14.941Z,26.70
2022-08-10T18:09:55.013Z,26.70
2022-08-10T18:12:37.922Z,26.60
2022-08-10T18:15:12.089Z,26.60
2022-08-10T18:17:48.272Z,26.60
2022-08-10T18:20:19.935Z,26.50
2022-08-10T18:22:53.735Z,26.50
2022-08-10T18:25:27.125Z,26.50
2022-08-10T18:28:04.012Z,26.40
2022-08-10T18:30:36.377Z,26.40
2022-08-10T18:33:13.594Z,26.40
2022-08-10T18:35:43.014Z,26.40
2022-08-10T18:38:17.834Z,26.30
2022-08-10T18:40:53.644Z,26.30
2022-08-10T18:44:06.537Z,26.20
2022-08-10T18:46:28.656Z,26.20
2022-08-10T18:49:05.416Z,26.10
2022-08-10T18:51:46.893Z,26.10
2022-08-10T18:54:31.294Z,26.10
2022-08-10T18:57:22.630Z,26.00
2022-08-10T19:00:07.824Z,26.00
2022-08-10T19:02:58.083Z,26.00
2022-08-10T19:05:39.560Z,26.00
2022-08-10T19:08:37.039Z,25.90
2022-08-10T19:11:29.207Z,25.90
2022-08-10T19:14:07.903Z,25.90
2022-08-10T19:16:48.939Z,25.90
2022-08-10T19:19:34.854Z,25.80
2022-08-10T19:22:16.129Z,25.80
2022-08-10T19:25:11.252Z,25.80
2022-08-10T19:27:51.997Z,25.80
2022-08-10T19:30:44.012Z,25.80
2022-08-10T19:33:27.955Z,25.70
2022-08-10T19:36:15.383Z,25.70
2022-08-10T19:39:01.173Z,25.70
2022-08-10T19:41:44.663Z,25.60
2022-08-10T19:44:23.776Z,25.60
2022-08-10T19:49:48.498Z,25.60
2022-08-10T19:52:28.802Z,25.60
2022-08-10T19:55:05.946Z,25.50
2022-08-10T19:57:39.939Z,25.60
2022-08-10T20:00:19.288Z,25.60
2022-08-10T20:03:04.001Z,25.60
2022-08-10T20:06:19.595Z,25.50
2022-08-10T20:08:52.846Z,25.50
2022-08-10T20:11:46.308Z,25.40
2022-08-10T20:14:22.879Z,25.50
2022-08-10T20:16:56.432Z,25.40
2022-08-10T20:19:53.632Z,25.40
2022-08-10T20:22:29.068Z,25.40
2022-08-10T20:25:02.597Z,25.40
2022-08-10T20:28:00.081Z,25.30
2022-08-10T20:30:32.330Z,25.40
2022-08-10T20:33:08.489Z,25.40
2022-08-10T20:35:48.148Z,25.40
2022-08-10T20:38:27.367Z,25.40
2022-08-10T20:41:09.885Z,25.30
2022-08-10T20:43:47.657Z,25.30
2022-08-10T20:46:27.840Z,25.30
2022-08-10T20:49:00.922Z,25.30
2022-08-10T20:51:58.341Z,25.30
2022-08-10T20:54:32.694Z,25.30
2022-08-10T20:57:54.615Z,25.30
2022-08-10T21:00:13.517Z,25.30
2022-08-10T21:02:54.961Z,25.30
2022-08-10T21:05:31.463Z,25.30
2022-08-10T21:08:10.102Z,25.30
2022-08-10T21:10:57.834Z,25.30
2022-08-10T21:13:42.187Z,25.30
2022-08-10T21:16:29.308Z,25.30
2022-08-10T21:19:22.060Z,25.40
2022-08-10T21:22:08.643Z,25.40
2022-08-10T21:24:45.195Z,25.30
2022-08-10T21:27:31.557Z,25.30
2022-08-10T21:30:13.055Z,25.30
2022-08-10T21:32:54.489Z,25.30
2022-08-10T21:35:37.226Z,25.30
2022-08-10T21:38:22.924Z,25.30
2022-08-10T21:41:56.389Z,25.20
2022-08-10T21:44:53.251Z,25.30
2022-08-10T21:48:07.034Z,25.30
2022-08-10T21:51:08.992Z,25.20
2022-08-10T21:54:07.100Z,25.20
2022-08-10T21:57:02.970Z,25.20
2022-08-10T21:59:57.231Z,25.20
2022-08-10T22:02:50.136Z,25.30
2022-08-10T22:05:42.270Z,25.20
2022-08-10T22:08:33.679Z,25.20
2022-08-10T22:11:22.675Z,25.20
2022-08-10T22:14:10.127Z,25.20
2022-08-10T22:18:10.650Z,25.20
2022-08-10T22:20:27.108Z,25.20
2022-08-10T22:23:27.343Z,25.20
2022-08-10T22:26:25.007Z,25.20
2022-08-10T22:29:14.323Z,25.20
2022-08-10T22:32:15.467Z,25.20
2022-08-10T22:35:13.120Z,25.20
2022-08-10T22:38:08.513Z,25.20
2022-08-10T22:40:54.746Z,25.20
2022-08-10T22:43:46.069Z,25.20
2022-08-10T22:46:37.394Z,25.10
2022-08-10T22:49:06.163Z,25.20
2022-08-10T22:51:44.291Z,25.20
2022-08-10T22:54:38.178Z,25.10
2022-08-10T22:57:24.785Z,25.10
2022-08-10T22:59:53.597Z,25.10
2022-08-10T23:02:31.874Z,25.10
2022-08-10T23:05:08.146Z,25.10
2022-08-10T23:07:46.422Z,25.10
2022-08-10T23:10:17.502Z,25.10
2022-08-10T23:12:50.871Z,25.10
2022-08-10T23:15:44.109Z,25.20
2022-08-10T23:18:35.947Z,25.20
2022-08-10T23:21:07.830Z,25.10
2022-08-10T23:23:40.924Z,25.10
2022-08-10T23:26:12.707Z,25.10
2022-08-10T23:28:58.918Z,25.10
2022-08-10T23:32:00.713Z,25.10
2022-08-10T23:34:24.283Z,25.10
2022-08-10T23:36:55.958Z,25.10
2022-08-10T23:39:33.965Z,25.10
2022-08-10T23:42:07.911Z,25.10
2022-08-10T23:44:43.995Z,25.10
2022-08-10T23:47:15.536Z,25.10
2022-08-10T23:49:45.744Z,25.10
2022-08-10T23:52:19.707Z,25.00
2022-08-10T23:54:51.161Z,25.00
2022-08-10T23:57:22.760Z,25.00
2022-08-10T23:59:59.151Z,25.00
